createdAt,value
2019-02-16T00:02:52.819Z,5.03
2019-02-16T00:08:07.461Z,4.57
2019-02-16T00:13:21.818Z,4.63
2019-02-16T00:18:36.355Z,3.87
2019-02-16T00:23:51.120Z,4.30
2019-02-16T00:29:05.804Z,5.10
2019-02-16T00:34:20.486Z,4.50
2019-02-16T00:39:34.827Z,4.90
2019-02-16T00:44:49.628Z,5.07
2019-02-16T00:50:03.983Z,4.13
2019-02-16T00:55:18.423Z,5.73
2019-02-16T01:00:32.984Z,5.63
2019-02-16T01:05:47.694Z,4.83
2019-02-16T01:11:02.084Z,4.73
2019-02-16T01:21:30.586Z,5.53
2019-02-16T01:26:45.053Z,5.10
2019-02-16T01:31:59.737Z,7.10
2019-02-16T01:37:14.167Z,5.90
2019-02-16T01:42:29.113Z,5.00
2019-02-16T01:47:43.584Z,7.33
2019-02-16T01:52:58.160Z,8.33
2019-02-16T01:58:12.681Z,5.73
2019-02-16T02:03:27.031Z,5.70
2019-02-16T02:08:41.403Z,5.83
2019-02-16T02:13:55.658Z,6.17
2019-02-16T02:19:10.134Z,4.77
2019-02-16T02:24:27.946Z,5.57
2019-02-16T02:29:42.345Z,8.17
2019-02-16T02:34:56.980Z,7.37
2019-02-16T02:40:11.660Z,6.93
2019-02-16T02:45:26.338Z,9.63
2019-02-16T02:50:40.768Z,6.73
2019-02-16T02:55:55.570Z,7.40
2019-02-16T03:01:10.047Z,8.03
2019-02-16T03:06:24.423Z,5.87
2019-02-16T03:11:39.037Z,7.43
2019-02-16T03:16:54.829Z,10.03
2019-02-16T03:22:08.997Z,6.93
2019-02-16T03:27:42.815Z,8.47
2019-02-16T03:33:26.832Z,8.17
2019-02-16T03:39:13.151Z,7.80
2019-02-16T03:44:27.546Z,7.53
2019-02-16T03:49:42.148Z,5.07
2019-02-16T03:54:57.479Z,7.83
2019-02-16T04:00:12.030Z,7.00
2019-02-16T04:05:26.895Z,7.00
2019-02-16T04:10:41.672Z,8.23
2019-02-16T04:15:56.341Z,7.53
2019-02-16T04:21:10.664Z,8.07
2019-02-16T04:26:25.053Z,8.27
2019-02-16T04:31:38.778Z,6.93
2019-02-16T04:36:53.238Z,9.20
2019-02-16T04:42:07.478Z,6.50
2019-02-16T04:47:22.506Z,5.83
2019-02-16T04:52:37.354Z,8.80
2019-02-16T04:57:51.859Z,8.33
2019-02-16T05:03:06.631Z,9.30
2019-02-16T05:08:21.400Z,8.70
2019-02-16T05:13:35.600Z,10.97
2019-02-16T05:18:49.957Z,6.77
2019-02-16T05:24:04.616Z,8.93
2019-02-16T05:29:18.970Z,12.13
2019-02-16T05:34:33.697Z,6.50
2019-02-16T05:39:48.359Z,7.97
2019-02-16T05:45:21.953Z,8.60
2019-02-16T05:50:36.630Z,7.93
2019-02-16T05:55:51.337Z,7.23
2019-02-16T06:01:05.831Z,8.40
2019-02-16T06:06:20.460Z,6.13
2019-02-16T06:11:35.124Z,8.50
2019-02-16T06:16:49.765Z,8.90
2019-02-16T06:22:04.275Z,8.40
2019-02-16T06:27:18.694Z,6.40
2019-02-16T06:32:33.172Z,8.63
2019-02-16T06:37:47.385Z,7.63
2019-02-16T06:43:01.802Z,9.23
2019-02-16T06:48:15.863Z,7.93
2019-02-16T06:53:30.138Z,8.03
2019-02-16T06:58:44.406Z,9.73
2019-02-16T07:03:58.919Z,10.00
2019-02-16T07:09:13.248Z,13.67
2019-02-16T07:14:28.286Z,11.17
2019-02-16T07:19:47.353Z,16.07
2019-02-16T07:25:01.795Z,14.13
2019-02-16T07:30:16.249Z,15.80
2019-02-16T07:35:32.636Z,20.70
2019-02-16T07:40:47.558Z,18.73
2019-02-16T07:46:27.497Z,19.33
2019-02-16T07:52:01.442Z,19.27
2019-02-16T07:57:26.240Z,17.30
2019-02-16T08:03:06.227Z,15.40
2019-02-16T08:14:06.719Z,18.33
2019-02-16T08:19:43.084Z,16.50
2019-02-16T08:25:19.592Z,12.50
2019-02-16T08:30:56.205Z,14.47
2019-02-16T08:36:35.848Z,15.60
2019-02-16T08:42:01.182Z,20.63
2019-02-16T08:47:40.560Z,16.43
2019-02-16T08:53:28.846Z,14.37
2019-02-16T08:59:11.539Z,15.37
2019-02-16T09:04:43.634Z,14.60
2019-02-16T09:10:31.156Z,19.27
2019-02-16T09:15:54.745Z,14.83
2019-02-16T09:21:31.452Z,14.97
2019-02-16T09:27:00.482Z,16.23
2019-02-16T09:32:32.001Z,16.33
2019-02-16T09:38:11.686Z,15.63
2019-02-16T09:43:45.170Z,13.57
2019-02-16T09:49:17.222Z,15.40
2019-02-16T09:54:49.371Z,23.07
2019-02-16T10:00:13.830Z,29.77
2019-02-16T10:06:05.343Z,25.83
2019-02-16T10:11:29.627Z,20.97
2019-02-16T10:17:06.014Z,24.27
2019-02-16T10:22:42.606Z,24.83
2019-02-16T10:28:14.756Z,21.00
2019-02-16T10:33:57.348Z,22.53
2019-02-16T10:39:39.757Z,34.07
2019-02-16T10:45:12.347Z,23.40
2019-02-16T10:50:55.189Z,23.70
2019-02-16T10:56:27.352Z,20.43
2019-02-16T11:01:52.174Z,21.17
2019-02-16T11:07:26.814Z,19.37
2019-02-16T11:13:00.109Z,21.87
2019-02-16T11:18:52.192Z,20.40
2019-02-16T11:24:25.756Z,20.43
2019-02-16T11:30:05.002Z,20.23
2019-02-16T11:35:44.711Z,14.03
2019-02-16T11:41:36.204Z,17.17
2019-02-16T11:47:24.825Z,17.97
2019-02-16T11:52:53.294Z,12.30
2019-02-16T11:58:35.744Z,20.27
2019-02-16T12:04:09.012Z,14.63
2019-02-16T12:09:41.995Z,18.10
2019-02-16T12:15:14.518Z,12.00
2019-02-16T12:20:55.111Z,15.17
2019-02-16T12:26:18.889Z,14.43
2019-02-16T12:31:52.163Z,10.67
2019-02-16T12:37:12.857Z,10.70
2019-02-16T12:42:44.788Z,9.00
2019-02-16T12:48:22.177Z,6.80
2019-02-16T15:18:23.403Z,8.53
2019-02-16T15:23:38.614Z,9.00
2019-02-16T15:28:56.019Z,10.60
2019-02-16T15:34:11.204Z,9.00
2019-02-16T15:39:25.561Z,8.80
2019-02-16T15:44:40.266Z,8.67
2019-02-16T15:49:55.023Z,9.07
2019-02-16T15:55:10.843Z,74.97
2019-02-16T16:00:33.689Z,30.27
2019-02-16T16:05:48.305Z,23.07
2019-02-16T16:11:12.968Z,11.43
2019-02-16T16:16:42.715Z,15.67
2019-02-16T16:22:09.554Z,9.77
2019-02-16T16:27:36.831Z,9.17
2019-02-16T16:33:09.034Z,7.60
2019-02-16T16:38:34.335Z,6.83
2019-02-16T16:44:02.182Z,8.07
2019-02-16T16:49:34.087Z,5.00
2019-02-16T16:55:19.655Z,4.43
2019-02-16T17:01:08.298Z,6.20
2019-02-16T17:06:40.320Z,6.63
2019-02-16T17:12:12.401Z,4.57
2019-02-16T17:17:44.978Z,3.43
2019-02-16T17:23:30.727Z,5.43
2019-02-16T17:29:03.845Z,5.33
2019-02-16T17:34:41.659Z,4.30
2019-02-16T17:40:13.337Z,6.67
2019-02-16T17:45:36.764Z,3.87
2019-02-16T17:50:58.209Z,7.73
2019-02-16T17:56:46.749Z,5.70
2019-02-16T18:02:19.798Z,3.87
2019-02-16T18:07:48.671Z,5.60
2019-02-16T18:13:32.758Z,9.83
2019-02-16T18:19:13.816Z,6.53
2019-02-16T18:24:50.994Z,3.80
2019-02-16T18:30:54.481Z,4.57
2019-02-16T18:36:24.142Z,3.97
2019-02-16T18:42:00.236Z,6.07
2019-02-16T18:47:33.869Z,6.63
2019-02-16T18:53:10.177Z,6.10
2019-02-16T18:58:47.018Z,9.03
2019-02-16T19:04:35.938Z,8.27
2019-02-16T19:10:12.267Z,6.10
2019-02-16T19:15:37.986Z,6.77
2019-02-16T19:21:20.649Z,7.47
2019-02-16T19:26:48.267Z,5.47
2019-02-16T19:32:30.728Z,7.27
2019-02-16T19:38:08.134Z,6.30
2019-02-16T19:43:29.237Z,7.77
2019-02-16T19:48:56.134Z,5.17
2019-02-16T19:54:35.665Z,4.83
2019-02-16T20:00:14.969Z,7.40
2019-02-16T20:05:48.368Z,4.90
2019-02-16T20:11:24.517Z,8.37
2019-02-16T20:17:07.091Z,6.30
2019-02-16T20:22:42.528Z,7.10
2019-02-16T20:28:14.085Z,9.27
2019-02-16T20:33:46.540Z,8.23
2019-02-16T20:39:19.086Z,8.97
2019-02-16T20:44:58.980Z,10.03
2019-02-16T20:50:26.391Z,12.30
2019-02-16T20:56:02.824Z,11.80
2019-02-16T21:01:36.283Z,10.63
2019-02-16T21:07:08.166Z,9.90
2019-02-16T21:12:40.624Z,8.97
2019-02-16T21:18:13.886Z,9.50
2019-02-16T21:23:46.116Z,11.87
2019-02-16T21:29:16.040Z,10.97
2019-02-16T21:35:01.726Z,11.13
2019-02-16T21:40:47.849Z,11.07
2019-02-16T21:46:20.468Z,11.33
2019-02-16T21:51:57.046Z,11.33
2019-02-16T21:57:39.929Z,13.93
2019-02-16T22:03:05.633Z,14.03
2019-02-16T22:08:42.581Z,13.07
2019-02-16T22:13:57.122Z,12.97
2019-02-16T22:19:11.602Z,11.93
2019-02-16T22:24:26.427Z,13.73
2019-02-16T22:29:41.176Z,13.30
2019-02-16T22:34:55.815Z,15.20
2019-02-16T22:40:10.305Z,14.10
2019-02-16T22:45:25.041Z,16.37
2019-02-16T22:50:39.981Z,13.73
2019-02-16T22:55:55.027Z,13.27
2019-02-16T23:01:11.427Z,12.03
2019-02-16T23:06:26.479Z,12.43
2019-02-16T23:11:41.662Z,11.60
2019-02-16T23:16:56.486Z,16.27
2019-02-16T23:22:11.204Z,15.00
2019-02-16T23:27:26.082Z,14.40
2019-02-16T23:32:40.671Z,18.00
2019-02-16T23:37:55.215Z,18.50
2019-02-16T23:43:09.531Z,14.50
2019-02-16T23:48:24.216Z,15.53
2019-02-16T23:53:38.591Z,15.67
2019-02-16T23:58:52.858Z,18.53
